createdAt,value
2023-03-01T00:01:38.415Z,5.20
2023-03-01T00:04:04.902Z,5.85
2023-03-01T00:06:31.794Z,5.93
2023-03-01T00:08:58.449Z,4.85
2023-03-01T00:11:32.613Z,5.93
2023-03-01T00:14:04.414Z,5.70
2023-03-01T00:16:35.192Z,5.80
2023-03-01T00:19:02.172Z,5.85
2023-03-01T00:21:29.183Z,6.15
2023-03-01T00:23:55.867Z,6.68
2023-03-01T00:26:24.005Z,5.33
2023-03-01T00:28:50.788Z,5.20
2023-03-01T00:31:20.125Z,5.47
2023-03-01T00:33:46.827Z,5.65
2023-03-01T00:36:15.441Z,5.75
2023-03-01T00:38:44.277Z,6.10
2023-03-01T00:41:17.143Z,6.25
2023-03-01T00:43:44.432Z,5.68
2023-03-01T00:46:16.677Z,5.63
2023-03-01T00:48:43.345Z,5.65
2023-03-01T00:51:15.166Z,6.20
2023-03-01T00:53:42.220Z,5.82
2023-03-01T00:56:11.305Z,5.72
2023-03-01T00:58:37.920Z,5.55
2023-03-01T01:01:18.729Z,5.63
2023-03-01T01:03:46.296Z,6.27
2023-03-01T01:06:22.898Z,5.65
2023-03-01T01:08:49.741Z,5.65
2023-03-01T01:11:16.715Z,5.22
2023-03-01T01:13:46.353Z,5.72
2023-03-01T01:16:13.659Z,6.20
2023-03-01T01:18:40.231Z,6.60
2023-03-01T01:21:09.495Z,6.45
2023-03-01T01:23:35.998Z,6.03
2023-03-01T01:26:12.465Z,6.05
2023-03-01T01:28:39.419Z,6.47
2023-03-01T01:31:06.987Z,5.68
2023-03-01T01:33:34.425Z,6.28
2023-03-01T01:36:01.586Z,6.35
2023-03-01T01:38:28.170Z,6.65
2023-03-01T01:40:54.723Z,5.73
2023-03-01T01:43:30.964Z,6.15
2023-03-01T01:46:20.432Z,7.05
2023-03-01T01:48:51.296Z,6.53
2023-03-01T01:51:21.094Z,6.30
2023-03-01T01:53:55.919Z,6.50
2023-03-01T01:56:25.487Z,6.35
2023-03-01T01:58:52.617Z,6.22
2023-03-01T02:01:19.496Z,6.50
2023-03-01T02:03:49.099Z,6.38
2023-03-01T02:06:21.637Z,6.50
2023-03-01T02:08:50.412Z,6.13
2023-03-01T02:11:18.457Z,6.00
2023-03-01T02:13:48.171Z,6.22
2023-03-01T02:16:16.522Z,6.95
2023-03-01T02:18:44.457Z,6.10
2023-03-01T02:21:21.211Z,5.80
2023-03-01T02:23:48.521Z,6.43
2023-03-01T02:26:24.163Z,5.95
2023-03-01T02:28:51.656Z,6.10
2023-03-01T02:31:39.545Z,6.43
2023-03-01T02:34:07.957Z,5.90
2023-03-01T02:36:40.553Z,6.47
2023-03-01T02:39:15.375Z,6.50
2023-03-01T02:41:47.583Z,5.72
2023-03-01T02:44:14.399Z,6.20
2023-03-01T02:46:47.096Z,5.85
2023-03-01T02:49:39.196Z,6.43
2023-03-01T02:52:24.296Z,5.05
2023-03-01T02:55:05.603Z,5.18
2023-03-01T02:57:35.088Z,5.77
2023-03-01T03:00:08.826Z,6.25
2023-03-01T03:02:37.391Z,6.20
2023-03-01T03:05:12.495Z,6.07
2023-03-01T03:07:42.248Z,5.70
2023-03-01T03:10:12.705Z,5.90
2023-03-01T03:12:39.624Z,6.00
2023-03-01T03:15:10.334Z,5.75
2023-03-01T03:17:39.248Z,6.07
2023-03-01T03:20:07.645Z,5.63
2023-03-01T03:22:35.065Z,5.90
2023-03-01T03:25:01.582Z,6.45
2023-03-01T03:27:29.275Z,6.53
2023-03-01T03:29:55.929Z,6.82
2023-03-01T03:32:22.535Z,6.28
2023-03-01T03:34:50.210Z,5.93
2023-03-01T03:37:35.537Z,6.47
2023-03-01T03:40:02.108Z,6.30
2023-03-01T03:42:28.567Z,6.10
2023-03-01T03:44:55.064Z,5.78
2023-03-01T03:47:21.639Z,5.70
2023-03-01T03:49:48.310Z,6.85
2023-03-01T03:52:14.940Z,5.55
2023-03-01T03:54:41.763Z,6.13
2023-03-01T03:57:08.666Z,6.30
2023-03-01T03:59:35.678Z,7.17
2023-03-01T04:02:02.388Z,5.68
2023-03-01T04:04:28.805Z,6.35
2023-03-01T04:06:55.395Z,5.65
2023-03-01T04:09:21.993Z,6.20
2023-03-01T04:11:48.492Z,6.20
2023-03-01T04:14:15.134Z,6.32
2023-03-01T04:16:42.145Z,5.95
2023-03-01T04:19:10.545Z,5.45
2023-03-01T04:21:37.236Z,6.13
2023-03-01T04:24:07.822Z,5.70
2023-03-01T04:26:35.259Z,5.57
2023-03-01T04:29:01.815Z,5.32
2023-03-01T04:31:29.339Z,5.80
2023-03-01T04:33:56.938Z,5.63
2023-03-01T04:36:27.231Z,6.07
2023-03-01T04:38:54.154Z,5.43
2023-03-01T04:41:22.863Z,5.20
2023-03-01T04:43:50.125Z,5.47
2023-03-01T04:46:22.466Z,6.35
2023-03-01T04:48:49.941Z,5.97
2023-03-01T04:51:17.011Z,5.40
2023-03-01T04:53:44.505Z,5.60
2023-03-01T04:56:11.049Z,5.53
2023-03-01T04:58:37.821Z,5.53
2023-03-01T05:01:17.652Z,6.10
2023-03-01T05:03:50.225Z,5.80
2023-03-01T05:06:17.830Z,6.03
2023-03-01T05:08:45.127Z,5.72
2023-03-01T05:11:12.645Z,6.32
2023-03-01T05:13:40.564Z,5.60
2023-03-01T05:16:12.718Z,6.13
2023-03-01T05:18:40.892Z,6.40
2023-03-01T05:21:14.053Z,5.65
2023-03-01T05:23:40.725Z,6.03
2023-03-01T05:26:27.795Z,5.50
2023-03-01T05:28:59.814Z,5.72
2023-03-01T05:31:26.963Z,5.82
2023-03-01T05:33:53.878Z,5.78
2023-03-01T05:36:20.456Z,6.03
2023-03-01T05:38:46.861Z,5.87
2023-03-01T05:41:18.091Z,6.18
2023-03-01T05:43:46.084Z,6.20
2023-03-01T05:46:14.438Z,6.28
2023-03-01T05:48:41.329Z,6.20
2023-03-01T05:51:07.977Z,6.00
2023-03-01T05:53:34.472Z,6.65
2023-03-01T05:56:03.476Z,6.38
2023-03-01T05:58:30.271Z,5.78
2023-03-01T06:00:57.354Z,6.15
2023-03-01T06:03:24.610Z,6.67
2023-03-01T06:06:03.787Z,6.32
2023-03-01T06:08:32.456Z,6.30
2023-03-01T06:10:58.899Z,5.93
2023-03-01T06:13:25.546Z,6.63
2023-03-01T06:15:52.815Z,6.20
2023-03-01T06:18:19.524Z,6.30
2023-03-01T06:20:46.106Z,6.93
2023-03-01T06:23:12.637Z,6.55
2023-03-01T06:25:39.150Z,6.70
2023-03-01T06:28:05.686Z,7.10
2023-03-01T06:30:32.223Z,6.80
2023-03-01T06:33:02.400Z,6.93
2023-03-01T06:35:30.936Z,6.55
2023-03-01T06:37:58.519Z,7.15
2023-03-01T06:40:25.093Z,6.93
2023-03-01T06:42:51.953Z,7.00
2023-03-01T06:45:20.404Z,7.53
2023-03-01T06:47:47.480Z,7.28
2023-03-01T06:50:15.378Z,6.47
2023-03-01T06:52:42.484Z,7.03
2023-03-01T06:55:09.242Z,7.70
2023-03-01T06:57:35.676Z,6.38
2023-03-01T07:00:02.588Z,6.35
2023-03-01T07:02:29.273Z,7.47
2023-03-01T07:04:55.805Z,7.27
2023-03-01T07:07:22.461Z,7.43
2023-03-01T07:09:49.916Z,7.18
2023-03-01T07:12:16.940Z,6.95
2023-03-01T07:14:44.896Z,6.82
2023-03-01T07:17:11.393Z,6.23
2023-03-01T07:19:37.981Z,6.50
2023-03-01T07:22:05.347Z,7.90
2023-03-01T07:24:31.855Z,7.70
2023-03-01T07:26:58.476Z,6.95
2023-03-01T07:29:24.980Z,7.20
2023-03-01T07:31:51.612Z,7.47
2023-03-01T07:34:18.054Z,8.32
2023-03-01T07:36:46.255Z,7.55
2023-03-01T07:39:12.994Z,8.07
2023-03-01T07:41:39.765Z,8.83
2023-03-01T07:44:06.552Z,7.30
2023-03-01T07:46:33.670Z,8.00
2023-03-01T07:49:00.903Z,8.18
2023-03-01T07:51:27.464Z,7.75
2023-03-01T07:53:54.125Z,7.57
2023-03-01T07:56:23.082Z,8.18
2023-03-01T07:58:51.010Z,7.63
2023-03-01T08:01:21.024Z,7.10
2023-03-01T08:03:47.790Z,7.75
2023-03-01T08:06:16.024Z,7.80
2023-03-01T08:08:43.160Z,7.95
2023-03-01T08:11:12.695Z,9.15
2023-03-01T08:13:39.730Z,8.57
2023-03-01T08:16:10.814Z,7.88
2023-03-01T08:18:37.398Z,7.53
2023-03-01T08:21:05.838Z,7.30
2023-03-01T08:23:32.512Z,7.88
2023-03-01T08:26:14.928Z,8.00
2023-03-01T08:28:42.565Z,7.63
2023-03-01T08:31:18.494Z,7.80
2023-03-01T08:33:45.224Z,7.68
2023-03-01T08:36:11.664Z,7.03
2023-03-01T08:38:38.091Z,6.03
2023-03-01T08:41:04.961Z,7.47
2023-03-01T08:43:31.833Z,6.20
2023-03-01T08:45:58.634Z,6.50
2023-03-01T08:48:26.186Z,6.15
2023-03-01T08:50:52.685Z,6.35
2023-03-01T08:53:19.110Z,5.78
2023-03-01T08:55:45.512Z,5.13
2023-03-01T08:58:11.992Z,5.57
2023-03-01T09:00:39.145Z,5.22
2023-03-01T09:03:05.731Z,4.68
2023-03-01T09:05:33.863Z,5.03
2023-03-01T09:08:00.346Z,4.70
2023-03-01T09:10:26.873Z,4.22
2023-03-01T09:12:53.653Z,4.03
2023-03-01T09:15:20.217Z,4.72
2023-03-01T09:17:46.713Z,4.28
2023-03-01T09:20:13.209Z,3.90
2023-03-01T09:22:39.810Z,3.92
2023-03-01T09:25:06.993Z,4.35
2023-03-01T09:27:33.533Z,3.97
2023-03-01T09:30:00.003Z,3.78
2023-03-01T09:32:26.974Z,3.37
2023-03-01T09:35:04.689Z,3.55
2023-03-01T09:37:35.226Z,4.50
2023-03-01T09:40:01.987Z,3.90
2023-03-01T09:42:32.113Z,3.55
2023-03-01T09:45:12.829Z,3.30
2023-03-01T09:47:39.479Z,3.47
2023-03-01T09:50:18.266Z,3.20
2023-03-01T09:52:49.690Z,3.47
2023-03-01T09:55:22.833Z,3.28
2023-03-01T09:57:55.395Z,3.07
2023-03-01T10:00:38.166Z,2.40
2023-03-01T10:03:35.166Z,2.50
2023-03-01T10:06:27.484Z,2.05
2023-03-01T10:09:06.198Z,2.22
2023-03-01T10:11:38.418Z,2.10
2023-03-01T10:14:13.854Z,2.55
2023-03-01T10:16:55.985Z,2.22
2023-03-01T10:19:29.296Z,2.45
2023-03-01T10:22:00.648Z,2.35
2023-03-01T10:24:37.386Z,2.20
2023-03-01T10:27:16.838Z,2.42
2023-03-01T10:29:49.855Z,2.15
2023-03-01T10:32:18.248Z,2.35
2023-03-01T10:34:44.929Z,3.00
2023-03-01T10:37:13.099Z,2.53
2023-03-01T10:40:13.020Z,2.65
2023-03-01T10:42:50.560Z,2.33
2023-03-01T10:45:38.329Z,2.60
2023-03-01T10:48:37.262Z,1.65
2023-03-01T10:51:03.613Z,1.93
2023-03-01T10:53:38.309Z,1.60
2023-03-01T10:56:16.638Z,1.83
2023-03-01T10:59:01.789Z,1.60
2023-03-01T11:01:36.482Z,1.45
2023-03-01T11:04:06.274Z,1.80
2023-03-01T11:06:37.782Z,1.63
2023-03-01T11:09:38.630Z,1.80
2023-03-01T11:12:14.283Z,2.00
2023-03-01T11:14:48.775Z,1.52
2023-03-01T11:17:26.894Z,1.60
2023-03-01T11:20:13.639Z,1.60
2023-03-01T11:22:48.736Z,1.75
2023-03-01T11:25:16.083Z,1.63
2023-03-01T11:27:45.564Z,1.35
2023-03-01T11:30:24.489Z,1.73
2023-03-01T11:33:09.070Z,1.35
2023-03-01T11:35:44.112Z,1.38
2023-03-01T11:38:22.937Z,1.17
2023-03-01T11:41:12.465Z,1.50
2023-03-01T11:43:45.376Z,1.50
2023-03-01T11:46:12.889Z,1.50
2023-03-01T11:49:17.530Z,1.63
2023-03-01T11:52:08.617Z,1.70
2023-03-01T11:54:42.476Z,1.80
2023-03-01T11:57:43.853Z,1.70
2023-03-01T12:00:51.399Z,1.90
2023-03-01T12:04:05.004Z,1.80
2023-03-01T12:06:37.324Z,2.05
2023-03-01T12:09:24.974Z,2.38
2023-03-01T12:12:11.110Z,2.00
2023-03-01T12:14:46.648Z,2.28
2023-03-01T12:17:38.627Z,2.72
2023-03-01T12:20:23.454Z,2.05
2023-03-01T12:23:20.348Z,2.30
2023-03-01T12:26:04.491Z,2.10
2023-03-01T12:28:45.015Z,2.10
2023-03-01T12:31:29.301Z,1.92
2023-03-01T12:34:12.335Z,1.73
2023-03-01T12:37:12.083Z,2.00
2023-03-01T12:39:44.615Z,1.73
2023-03-01T12:42:22.102Z,2.08
2023-03-01T12:45:12.879Z,1.92
2023-03-01T12:47:51.743Z,2.30
2023-03-01T12:50:22.794Z,1.92
2023-03-01T12:52:59.095Z,1.93
2023-03-01T12:55:40.670Z,1.88
2023-03-01T12:58:47.275Z,2.17
2023-03-01T13:01:37.283Z,2.10
2023-03-01T13:04:12.130Z,2.20
2023-03-01T13:06:49.464Z,2.33
2023-03-01T13:09:48.690Z,2.15
2023-03-01T13:12:48.196Z,2.10
2023-03-01T13:15:23.706Z,2.47
2023-03-01T13:17:53.365Z,2.33
2023-03-01T13:20:39.914Z,1.93
2023-03-01T13:23:14.645Z,2.00
2023-03-01T13:25:59.792Z,1.77
2023-03-01T13:28:35.571Z,2.22
2023-03-01T13:31:07.757Z,2.13
2023-03-01T13:33:49.862Z,2.20
2023-03-01T13:36:28.624Z,1.80
2023-03-01T13:38:55.151Z,2.03
2023-03-01T13:41:40.126Z,2.17
2023-03-01T13:44:43.783Z,1.92
2023-03-01T13:47:11.038Z,2.37
2023-03-01T13:49:50.886Z,2.25
2023-03-01T13:52:35.437Z,2.33
2023-03-01T13:55:14.368Z,1.75
2023-03-01T13:58:05.561Z,1.90
2023-03-01T14:00:40.537Z,2.03
2023-03-01T14:03:14.550Z,2.03
2023-03-01T14:05:44.508Z,2.00
2023-03-01T14:08:25.937Z,1.98
2023-03-01T14:11:01.892Z,2.17
2023-03-01T14:13:49.935Z,1.83
2023-03-01T14:16:19.356Z,2.13
2023-03-01T14:19:34.189Z,2.00
2023-03-01T14:22:34.571Z,1.70
2023-03-01T14:25:04.531Z,2.10
2023-03-01T14:27:40.451Z,1.77
2023-03-01T14:30:15.535Z,1.67
2023-03-01T14:32:42.100Z,2.10
2023-03-01T14:35:22.766Z,2.42
2023-03-01T14:37:50.768Z,2.40
2023-03-01T14:40:24.154Z,2.40
2023-03-01T14:42:51.756Z,2.25
2023-03-01T14:45:19.039Z,1.92
2023-03-01T14:47:46.321Z,2.05
2023-03-01T14:50:26.617Z,2.42
2023-03-01T14:52:58.109Z,2.27
2023-03-01T14:55:34.762Z,2.10
2023-03-01T14:58:04.699Z,1.92
2023-03-01T15:00:37.434Z,2.20
2023-03-01T15:03:19.397Z,2.47
2023-03-01T15:05:45.946Z,2.43
2023-03-01T15:08:23.740Z,2.53
2023-03-01T15:11:23.718Z,2.50
2023-03-01T15:13:50.651Z,2.30
2023-03-01T15:16:27.103Z,3.10
2023-03-01T15:19:00.302Z,2.50
2023-03-01T15:21:31.551Z,2.30
2023-03-01T15:24:05.712Z,2.10
2023-03-01T15:26:38.888Z,2.13
2023-03-01T15:29:05.389Z,2.47
2023-03-01T15:31:39.392Z,2.60
2023-03-01T15:34:24.385Z,2.60
2023-03-01T15:36:55.984Z,2.05
2023-03-01T15:39:31.436Z,2.40
2023-03-01T15:41:57.968Z,2.40
2023-03-01T15:44:41.635Z,2.43
2023-03-01T15:47:28.822Z,2.03
2023-03-01T15:49:56.462Z,1.92
2023-03-01T15:52:43.818Z,2.15
2023-03-01T15:55:30.564Z,2.28
2023-03-01T15:58:01.539Z,2.83
2023-03-01T16:00:29.721Z,2.35
2023-03-01T16:02:56.932Z,2.40
2023-03-01T16:05:29.826Z,2.47
2023-03-01T16:07:56.363Z,2.42
2023-03-01T16:10:23.528Z,2.77
2023-03-01T16:12:53.308Z,2.90
2023-03-01T16:15:33.059Z,2.55
2023-03-01T16:17:59.796Z,2.95
2023-03-01T16:20:29.176Z,2.40
2023-03-01T16:23:06.543Z,2.30
2023-03-01T16:25:33.905Z,2.25
2023-03-01T16:28:07.230Z,2.40
2023-03-01T16:30:36.224Z,2.35
2023-03-01T16:33:19.122Z,2.47
2023-03-01T16:35:51.251Z,2.33
2023-03-01T16:38:17.714Z,1.92
2023-03-01T16:40:49.715Z,2.22
2023-03-01T16:43:16.333Z,2.28
2023-03-01T16:45:45.600Z,2.72
2023-03-01T16:48:12.517Z,2.67
2023-03-01T16:50:39.260Z,2.70
2023-03-01T16:53:06.592Z,2.70
2023-03-01T16:55:34.926Z,2.38
2023-03-01T16:58:01.992Z,2.33
2023-03-01T17:00:28.894Z,2.70
2023-03-01T17:02:55.696Z,2.70
2023-03-01T17:05:24.622Z,2.53
2023-03-01T17:07:51.375Z,2.47
2023-03-01T17:10:17.960Z,2.40
2023-03-01T17:12:44.438Z,2.17
2023-03-01T17:15:12.817Z,2.38
2023-03-01T17:17:39.499Z,2.40
2023-03-01T17:20:06.603Z,2.20
2023-03-01T17:22:33.072Z,1.83
2023-03-01T17:24:59.793Z,2.20
2023-03-01T17:27:26.411Z,2.55
2023-03-01T17:29:52.958Z,2.50
2023-03-01T17:32:19.800Z,2.78
2023-03-01T17:34:46.699Z,2.10
2023-03-01T17:37:13.232Z,3.13
2023-03-01T17:39:39.710Z,2.80
2023-03-01T17:42:07.077Z,3.25
2023-03-01T17:44:34.639Z,2.92
2023-03-01T17:47:05.381Z,2.60
2023-03-01T17:49:32.739Z,2.50
2023-03-01T17:51:59.861Z,3.05
2023-03-01T17:54:26.609Z,2.20
2023-03-01T17:56:53.497Z,2.83
2023-03-01T17:59:20.002Z,2.35
2023-03-01T18:01:47.227Z,2.60
2023-03-01T18:04:13.885Z,2.58
2023-03-01T18:06:43.197Z,2.42
2023-03-01T18:09:11.797Z,2.60
2023-03-01T18:11:38.365Z,3.00
2023-03-01T18:14:04.806Z,2.70
2023-03-01T18:16:32.260Z,3.35
2023-03-01T18:18:59.988Z,3.00
2023-03-01T18:21:27.335Z,2.70
2023-03-01T18:23:54.734Z,3.33
2023-03-01T18:26:22.768Z,2.90
2023-03-01T18:28:51.659Z,2.97
2023-03-01T18:31:21.673Z,2.78
2023-03-01T18:33:49.866Z,3.38
2023-03-01T18:36:20.192Z,2.95
2023-03-01T18:38:47.573Z,2.87
2023-03-01T18:41:14.193Z,3.42
2023-03-01T18:43:40.708Z,3.00
2023-03-01T18:46:07.435Z,2.80
2023-03-01T18:48:36.070Z,3.17
2023-03-01T18:51:15.671Z,3.30
2023-03-01T18:53:42.232Z,3.20
2023-03-01T18:56:09.740Z,3.22
2023-03-01T18:58:37.385Z,3.40
2023-03-01T19:01:07.905Z,2.75
2023-03-01T19:03:35.442Z,3.10
2023-03-01T19:06:02.278Z,3.28
2023-03-01T19:08:30.454Z,3.90
2023-03-01T19:10:58.930Z,3.78
2023-03-01T19:13:26.339Z,3.53
2023-03-01T19:15:53.439Z,4.10
2023-03-01T19:18:19.992Z,3.42
2023-03-01T19:20:46.854Z,3.22
2023-03-01T19:23:15.136Z,2.65
2023-03-01T19:25:44.007Z,3.65
2023-03-01T19:28:10.584Z,3.30
2023-03-01T19:30:38.416Z,3.22
2023-03-01T19:33:05.019Z,3.42
2023-03-01T19:35:34.501Z,3.58
2023-03-01T19:38:00.938Z,3.78
2023-03-01T19:40:27.522Z,3.13
2023-03-01T19:42:54.020Z,3.60
2023-03-01T19:45:31.853Z,4.05
2023-03-01T19:47:59.690Z,3.50
2023-03-01T19:50:26.085Z,4.05
2023-03-01T19:52:52.710Z,3.93
2023-03-01T19:55:19.162Z,3.97
2023-03-01T19:57:45.607Z,4.63
2023-03-01T20:00:12.620Z,4.63
2023-03-01T20:02:39.169Z,4.30
2023-03-01T20:05:05.862Z,4.27
2023-03-01T20:07:32.342Z,4.47
2023-03-01T20:09:58.814Z,4.70
2023-03-01T20:12:25.247Z,4.45
2023-03-01T20:14:55.361Z,4.75
2023-03-01T20:17:22.708Z,5.17
2023-03-01T20:19:49.287Z,5.43
2023-03-01T20:22:17.344Z,5.05
2023-03-01T20:24:44.463Z,5.03
2023-03-01T20:27:10.987Z,5.30
2023-03-01T20:29:37.565Z,4.93
2023-03-01T20:32:04.453Z,5.28
2023-03-01T20:34:30.959Z,4.88
2023-03-01T20:36:57.347Z,5.07
2023-03-01T20:39:23.874Z,4.60
2023-03-01T20:41:50.359Z,5.40
2023-03-01T20:44:16.858Z,4.82
2023-03-01T20:46:43.390Z,5.38
2023-03-01T20:49:11.088Z,5.72
2023-03-01T20:51:37.667Z,5.10
2023-03-01T20:54:05.057Z,4.90
2023-03-01T20:56:31.951Z,5.25
2023-03-01T20:58:58.678Z,5.30
2023-03-01T21:01:25.162Z,5.65
2023-03-01T21:03:51.871Z,5.75
2023-03-01T21:06:18.619Z,6.00
2023-03-01T21:08:45.128Z,5.25
2023-03-01T21:11:11.645Z,5.78
2023-03-01T21:13:38.127Z,4.80
2023-03-01T21:16:13.252Z,4.80
2023-03-01T21:18:40.810Z,4.83
2023-03-01T21:21:13.421Z,5.30
2023-03-01T21:23:42.048Z,5.30
2023-03-01T21:26:14.988Z,4.90
2023-03-01T21:28:42.831Z,5.43
2023-03-01T21:31:14.784Z,6.07
2023-03-01T21:33:45.555Z,5.65
2023-03-01T21:36:12.639Z,4.88
2023-03-01T21:38:42.194Z,4.65
2023-03-01T21:41:12.301Z,4.65
2023-03-01T21:43:40.192Z,5.43
2023-03-01T21:46:13.106Z,4.82
2023-03-01T21:48:41.809Z,4.95
2023-03-01T21:51:11.367Z,5.28
2023-03-01T21:53:38.379Z,4.70
2023-03-01T21:56:05.478Z,5.10
2023-03-01T21:58:32.250Z,5.43
2023-03-01T22:01:06.937Z,5.88
2023-03-01T22:03:33.560Z,6.35
2023-03-01T22:06:02.211Z,5.82
2023-03-01T22:08:29.376Z,5.07
2023-03-01T22:10:55.911Z,6.43
2023-03-01T22:13:22.449Z,5.55
2023-03-01T22:15:49.021Z,5.55
2023-03-01T22:18:15.569Z,5.30
2023-03-01T22:20:45.392Z,5.53
2023-03-01T22:23:11.933Z,5.13
2023-03-01T22:25:42.661Z,4.97
2023-03-01T22:28:09.749Z,5.22
2023-03-01T22:30:36.308Z,5.35
2023-03-01T22:33:02.818Z,6.63
2023-03-01T22:35:29.618Z,5.50
2023-03-01T22:37:56.408Z,6.90
2023-03-01T22:40:22.942Z,5.90
2023-03-01T22:42:49.475Z,6.07
2023-03-01T22:45:16.060Z,6.70
2023-03-01T22:47:42.531Z,7.53
2023-03-01T22:50:13.086Z,6.97
2023-03-01T22:52:39.776Z,7.18
2023-03-01T22:55:07.218Z,8.52
2023-03-01T22:57:33.762Z,7.97
2023-03-01T23:00:00.275Z,8.88
2023-03-01T23:02:27.406Z,9.05
2023-03-01T23:04:54.220Z,8.10
2023-03-01T23:07:20.757Z,8.52
2023-03-01T23:09:48.495Z,9.07
2023-03-01T23:12:16.974Z,8.88
2023-03-01T23:14:43.574Z,9.90
2023-03-01T23:17:10.967Z,8.95
2023-03-01T23:19:37.629Z,9.68
2023-03-01T23:22:04.835Z,10.97
2023-03-01T23:24:31.971Z,10.48
2023-03-01T23:27:01.062Z,9.48
2023-03-01T23:29:27.597Z,9.65
2023-03-01T23:31:57.827Z,10.15
2023-03-01T23:34:25.372Z,10.33
2023-03-01T23:36:53.202Z,10.55
2023-03-01T23:39:20.049Z,11.40
2023-03-01T23:41:46.897Z,11.90
2023-03-01T23:44:19.176Z,10.60
2023-03-01T23:46:48.295Z,11.83
2023-03-01T23:49:18.133Z,11.45
2023-03-01T23:51:45.414Z,13.52
2023-03-01T23:54:13.229Z,12.05
2023-03-01T23:56:42.246Z,11.80
2023-03-01T23:59:14.848Z,13.33
